Time;durP1;ratioP1;P1;durP2;ratioP2;P2;SDS_P1;SDS_P2;PMS_P1;PMS_P2;Temp;Humidity;BMP_temperature;BMP_pressure;BME280_temperature;BME280_humidity;BME280_pressure;Samples;Min_cycle;Max_cycle;Signal;HPM_P1;HPM_P2
2023/06/19 00:02:22;;;;;;;33.95;21.75;;;;;;;19.72;93.36;100399.38;7365974;19;20034;-62
2023/06/19 00:04:50;;;;;;;33.35;21.75;;;;;;;19.72;93.16;100399.38;7363880;19;20014;-61
2023/06/19 00:07:18;;;;;;;34.65;22.42;;;;;;;19.67;92.29;100400.06;7370802;19;20030;-62
2023/06/19 00:09:46;;;;;;;36.35;21.67;;;;;;;19.57;92.17;100405.91;7363863;19;20064;-62
2023/06/19 00:12:13;;;;;;;35.85;21.95;;;;;;;19.48;92.61;100399.25;7367620;19;20109;-62
2023/06/19 00:14:41;;;;;;;34.72;21.38;;;;;;;19.47;93.09;100396.78;7366668;19;20083;-61
2023/06/19 00:17:08;;;;;;;38.28;22.52;;;;;;;19.44;93.65;100400.72;7364223;19;20022;-63
2023/06/19 00:19:36;;;;;;;35.67;21.52;;;;;;;19.47;94.17;100402.94;7363423;19;20011;-63
2023/06/19 00:22:04;;;;;;;34.92;20.83;;;;;;;19.50;93.81;100399.84;7366058;19;21790;-63
2023/06/19 00:24:31;;;;;;;31.45;20.42;;;;;;;19.43;93.41;100415.06;7363797;19;20010;-62
2023/06/19 00:27:02;;;;;;;33.63;19.70;;;;;;;19.40;93.45;100401.38;7359657;19;20328;-63
2023/06/19 00:29:30;;;;;;;31.83;19.40;;;;;;;19.37;93.46;100404.47;7367577;19;20018;-61
2023/06/19 00:31:57;;;;;;;36.03;20.40;;;;;;;19.38;94.09;100404.25;7363342;19;20386;-63
2023/06/19 00:34:32;;;;;;;36.30;20.17;;;;;;;19.42;94.09;100412.63;7366628;19;20078;-63
2023/06/19 00:36:59;;;;;;;33.05;19.95;;;;;;;19.38;93.68;100409.59;7358835;19;20044;-63
2023/06/19 00:39:27;;;;;;;30.25;18.05;;;;;;;19.36;93.84;100402.81;7367755;19;20022;-63
2023/06/19 00:41:56;;;;;;;33.08;19.55;;;;;;;19.40;93.95;100406.69;7365484;19;20025;-62
2023/06/19 00:44:24;;;;;;;30.00;19.15;;;;;;;19.43;94.09;100406.25;7364785;19;20046;-62
2023/06/19 00:46:58;;;;;;;30.63;17.63;;;;;;;19.44;93.46;100411.41;7365162;19;20113;-62
2023/06/19 00:49:28;;;;;;;31.08;17.40;;;;;;;19.43;93.17;100414.25;7365304;19;20475;-62
2023/06/19 00:51:56;;;;;;;29.15;17.52;;;;;;;19.44;93.41;100408.72;7366531;19;20014;-62
2023/06/19 00:54:26;;;;;;;28.42;17.92;;;;;;;19.40;92.82;100407.50;7366339;19;21757;-61
2023/06/19 00:56:53;;;;;;;26.17;17.27;;;;;;;19.39;92.66;100407.72;7363445;19;20010;-62
2023/06/19 00:59:22;;;;;;;30.60;18.60;;;;;;;19.40;93.14;100417.38;7366606;19;21165;-63
2023/06/19 01:01:49;;;;;;;28.63;16.88;;;;;;;19.40;93.50;100420.84;7363342;19;20018;-61
2023/06/19 01:04:16;;;;;;;33.70;19.23;;;;;;;19.40;93.57;100428.84;7363939;19;20030;-63
2023/06/19 01:06:53;;;;;;;32.33;19.40;;;;;;;19.41;92.66;100418.97;7365799;19;20344;-62
2023/06/19 01:09:21;;;;;;;29.38;17.98;;;;;;;19.40;93.21;100425.38;7364216;19;20467;-62
2023/06/19 01:11:55;;;;;;;29.20;17.73;;;;;;;19.37;93.73;100421.28;7366341;19;20025;-62
2023/06/19 01:14:26;;;;;;;29.73;16.77;;;;;;;19.39;93.42;100426.41;7362491;19;20081;-63
2023/06/19 01:16:54;;;;;;;29.25;16.95;;;;;;;19.38;93.47;100422.09;7363164;19;20018;-62
2023/06/19 01:19:21;;;;;;;28.10;17.10;;;;;;;19.38;93.43;100416.78;7364631;19;20014;-62
2023/06/19 01:21:50;;;;;;;27.40;16.30;;;;;;;19.42;93.29;100421.44;7364074;19;20086;-62
2023/06/19 01:24:17;;;;;;;27.75;15.45;;;;;;;19.44;93.32;100421.22;7364897;19;20055;-62
2023/06/19 01:26:45;;;;;;;25.65;15.68;;;;;;;19.46;92.82;100424.50;7364753;19;20061;-62
2023/06/19 01:29:15;;;;;;;26.40;15.38;;;;;;;19.45;93.17;100431.72;7358252;19;20097;-62
2023/06/19 01:31:52;;;;;;;24.42;15.32;;;;;;;19.45;93.20;100420.22;7364497;19;20023;-63
2023/06/19 01:34:21;;;;;;;25.02;14.32;;;;;;;19.41;93.11;100427.00;7362236;19;20076;-62
2023/06/19 01:36:49;;;;;;;25.48;14.02;;;;;;;19.38;92.62;100425.59;7363150;19;20078;-61
2023/06/19 01:39:19;;;;;;;22.83;13.90;;;;;;;19.36;92.34;100424.16;7363583;19;20043;-61
2023/06/19 01:41:47;;;;;;;22.85;13.73;;;;;;;19.36;93.01;100424.97;7363239;19;20052;-64
2023/06/19 01:44:15;;;;;;;22.45;14.07;;;;;;;19.34;92.77;100416.41;7364071;19;20571;-61
2023/06/19 01:46:42;;;;;;;24.00;14.52;;;;;;;19.34;93.26;100419.06;7358797;19;20738;-62
2023/06/19 01:49:09;;;;;;;28.27;16.08;;;;;;;19.36;93.42;100421.50;7363201;19;21057;-61
2023/06/19 01:51:36;;;;;;;23.23;14.50;;;;;;;19.35;93.38;100418.00;7364391;19;20649;-63
2023/06/19 01:54:04;;;;;;;23.52;14.50;;;;;;;19.33;93.61;100420.09;7363796;19;20014;-62
2023/06/19 01:56:31;;;;;;;23.15;14.57;;;;;;;19.35;93.57;100425.22;7361094;19;20020;-61
2023/06/19 01:58:58;;;;;;;25.05;14.30;;;;;;;19.34;93.98;100421.75;7363973;19;20023;-62
2023/06/19 02:01:25;;;;;;;21.52;13.88;;;;;;;19.34;93.12;100434.25;7360259;19;20037;-63
2023/06/19 02:03:52;;;;;;;23.90;14.15;;;;;;;19.34;93.34;100428.91;7362612;19;20022;-63
2023/06/19 02:06:21;;;;;;;24.17;14.15;;;;;;;19.32;93.26;100437.13;7361059;19;20021;-63
2023/06/19 02:08:48;;;;;;;26.67;14.88;;;;;;;19.33;94.01;100437.97;7364448;19;20324;-61
2023/06/19 02:11:15;;;;;;;23.33;14.07;;;;;;;19.31;93.75;100445.34;7363213;19;20726;-62
2023/06/19 02:13:43;;;;;;;25.52;14.55;;;;;;;19.29;93.22;100450.94;7363808;19;20015;-61
2023/06/19 02:16:10;;;;;;;22.70;14.13;;;;;;;19.28;93.54;100440.47;7361566;19;20825;-62
2023/06/19 02:18:37;;;;;;;25.55;14.00;;;;;;;19.20;93.68;100438.88;7362371;19;20014;-63
2023/06/19 02:21:04;;;;;;;24.95;15.27;;;;;;;19.22;94.38;100442.16;7361943;19;20061;-62
2023/06/19 02:23:33;;;;;;;24.15;13.95;;;;;;;19.23;94.48;100457.94;7364751;19;20063;-62
2023/06/19 02:26:01;;;;;;;25.33;13.90;;;;;;;19.22;94.28;100440.31;7357237;19;20015;-62
2023/06/19 02:28:28;;;;;;;23.10;13.82;;;;;;;19.20;94.28;100449.56;7364042;19;20028;-62
2023/06/19 02:30:55;;;;;;;19.67;12.38;;;;;;;19.16;93.94;100446.50;7360963;19;20033;-62
2023/06/19 02:33:23;;;;;;;25.67;14.85;;;;;;;19.11;94.06;100449.00;7358837;19;20018;-62
2023/06/19 02:35:50;;;;;;;25.48;13.82;;;;;;;19.13;94.58;100454.97;7360695;19;20118;-62
2023/06/19 02:38:21;;;;;;;22.77;13.65;;;;;;;19.12;94.73;100456.00;7364201;19;20154;-62
2023/06/19 02:40:48;;;;;;;21.95;13.35;;;;;;;19.07;93.86;100465.69;7361372;19;21712;-62
2023/06/19 02:43:15;;;;;;;23.60;13.70;;;;;;;19.02;94.34;100466.34;7361634;19;20022;-63
2023/06/19 02:45:42;;;;;;;23.20;14.05;;;;;;;19.03;94.17;100465.31;7361245;19;21306;-62
2023/06/19 02:48:10;;;;;;;24.10;14.27;;;;;;;19.04;94.08;100472.28;7356750;19;20119;-62
2023/06/19 02:50:37;;;;;;;21.30;13.57;;;;;;;19.02;94.17;100471.66;7359104;19;20029;-63
2023/06/19 02:53:04;;;;;;;23.60;12.57;;;;;;;19.03;93.92;100475.16;7362552;19;20007;-62
2023/06/19 02:55:31;;;;;;;22.92;12.88;;;;;;;19.00;93.93;100468.38;7361592;19;20110;-63
2023/06/19 02:57:58;;;;;;;18.23;11.98;;;;;;;18.97;93.70;100471.50;7357990;19;20014;-62
2023/06/19 03:00:28;;;;;;;21.33;13.35;;;;;;;18.95;93.84;100475.41;7361768;19;20596;-61
2023/06/19 03:02:55;;;;;;;19.55;11.95;;;;;;;18.96;94.45;100475.19;7361796;19;20014;-62
2023/06/19 03:05:22;;;;;;;21.17;12.10;;;;;;;18.95;94.33;100478.88;7361636;19;20534;-63
2023/06/19 03:07:49;;;;;;;18.80;11.65;;;;;;;18.94;93.45;100485.28;7361914;19;20089;-62
2023/06/19 03:10:16;;;;;;;19.67;11.40;;;;;;;18.94;93.16;100487.94;7361232;19;20023;-63
2023/06/19 03:12:43;;;;;;;18.08;11.80;;;;;;;18.90;92.96;100497.38;7362184;19;20031;-63
2023/06/19 03:15:11;;;;;;;18.73;10.73;;;;;;;18.86;92.92;100496.19;7357781;19;20098;-62
2023/06/19 03:17:38;;;;;;;22.90;12.55;;;;;;;18.89;93.60;100509.09;7357687;19;20010;-63
2023/06/19 03:20:06;;;;;;;15.98;10.30;;;;;;;18.92;93.86;100513.19;7358226;19;20007;-62
2023/06/19 03:22:33;;;;;;;18.88;11.02;;;;;;;18.86;93.07;100522.03;7358444;19;20093;-62
2023/06/19 03:25:00;;;;;;;18.52;10.60;;;;;;;18.82;93.06;100520.81;7359573;19;20018;-62
2023/06/19 03:27:29;;;;;;;19.33;10.50;;;;;;;18.82;92.86;100526.97;7359026;19;20019;-62
2023/06/19 03:29:56;;;;;;;16.63;9.63;;;;;;;18.80;92.68;100537.03;7358822;19;20015;-63
2023/06/19 03:32:23;;;;;;;14.50;9.52;;;;;;;18.80;93.33;100535.19;7356666;19;20022;-62
2023/06/19 03:34:50;;;;;;;16.73;9.73;;;;;;;18.79;93.37;100536.22;7361219;19;20029;-62
2023/06/19 03:37:17;;;;;;;15.85;9.68;;;;;;;18.77;92.55;100537.47;7358936;19;20023;-62
2023/06/19 03:39:44;;;;;;;19.75;11.07;;;;;;;18.73;92.41;100542.41;7359107;19;20018;-62
2023/06/19 03:42:11;;;;;;;19.23;9.85;;;;;;;18.70;92.60;100545.50;7359580;19;20031;-63
2023/06/19 03:44:38;;;;;;;15.05;9.55;;;;;;;18.68;92.71;100539.56;7361839;19;20454;-62
2023/06/19 03:47:05;;;;;;;17.02;9.38;;;;;;;18.63;92.86;100538.56;7362747;19;20061;-61
2023/06/19 03:49:32;;;;;;;17.75;10.27;;;;;;;18.63;93.14;100550.06;7364689;19;20016;-62
2023/06/19 03:51:59;;;;;;;15.32;9.95;;;;;;;18.62;93.02;100548.41;7364720;19;20416;-61
2023/06/19 03:54:26;;;;;;;16.08;9.57;;;;;;;18.61;92.74;100554.78;7364433;19;20033;-62
2023/06/19 03:56:53;;;;;;;16.70;9.30;;;;;;;18.57;92.79;100556.22;7365193;19;20010;-62
2023/06/19 03:59:21;;;;;;;16.52;9.00;;;;;;;18.53;93.06;100554.16;7367785;19;20086;-62
2023/06/19 04:01:48;;;;;;;14.90;9.15;;;;;;;18.51;93.35;100558.88;7363978;19;20025;-62
2023/06/19 04:04:15;;;;;;;17.90;10.00;;;;;;;18.50;93.50;100559.91;7368762;19;20010;-62
2023/06/19 04:06:47;;;;;;;16.00;8.57;;;;;;;18.48;93.35;100561.97;7365843;19;21312;-63
2023/06/19 04:09:15;;;;;;;15.40;8.63;;;;;;;18.50;93.24;100567.91;7366571;19;20959;-63
2023/06/19 04:11:42;;;;;;;16.92;9.15;;;;;;;18.50;93.18;100571.38;7366500;19;20094;-65
2023/06/19 04:14:09;;;;;;;14.38;8.63;;;;;;;18.51;92.79;100574.88;7365131;19;20089;-61
2023/06/19 04:16:37;;;;;;;15.55;10.77;;;;;;;18.52;93.17;100579.19;7366272;19;21068;-63
2023/06/19 04:19:03;;;;;;;17.30;9.52;;;;;;;18.50;93.58;100583.88;7363501;19;20471;-62
2023/06/19 04:21:30;;;;;;;14.63;9.02;;;;;;;18.51;93.33;100589.00;7366262;19;20014;-62
2023/06/19 04:23:58;;;;;;;15.15;9.15;;;;;;;18.54;93.23;100587.81;7364257;19;20023;-62
2023/06/19 04:26:25;;;;;;;17.38;8.65;;;;;;;18.53;93.14;100586.97;7367375;19;20022;-62
2023/06/19 04:28:52;;;;;;;16.42;9.98;;;;;;;18.53;92.73;100586.97;7367642;19;20018;-62
2023/06/19 04:31:19;;;;;;;16.70;9.60;;;;;;;18.54;93.40;100591.28;7366463;19;20094;-62
2023/06/19 04:33:46;;;;;;;16.02;9.55;;;;;;;18.58;93.25;100594.38;7362706;19;20693;-63
2023/06/19 04:36:14;;;;;;;21.60;9.65;;;;;;;18.61;93.61;100602.75;7365232;19;20010;-62
2023/06/19 04:38:42;;;;;;;15.60;8.98;;;;;;;18.60;92.66;100595.78;7364584;19;20019;-62
2023/06/19 04:41:09;;;;;;;15.15;9.05;;;;;;;18.61;92.70;100599.25;7366168;19;20011;-61
2023/06/19 04:43:36;;;;;;;12.93;7.88;;;;;;;18.58;92.68;100600.50;7365286;19;20025;-62
2023/06/19 04:46:03;;;;;;;16.40;8.32;;;;;;;18.58;92.52;100599.69;7366282;19;20025;-62
2023/06/19 04:48:31;;;;;;;14.48;8.07;;;;;;;18.61;92.64;100596.59;7364950;19;20059;-61
2023/06/19 04:51:00;;;;;;;15.00;8.13;;;;;;;18.63;92.47;100607.88;7363166;19;20015;-62
2023/06/19 04:53:27;;;;;;;13.70;8.05;;;;;;;18.65;92.62;100609.28;7367211;19;21395;-62
2023/06/19 04:55:55;;;;;;;15.50;8.50;;;;;;;18.65;92.34;100605.78;7359237;19;20025;-63
2023/06/19 04:58:22;;;;;;;15.20;8.13;;;;;;;18.64;92.35;100612.19;7363607;19;20010;-62
2023/06/19 05:00:51;;;;;;;17.48;8.98;;;;;;;18.67;92.76;100604.56;7366779;19;20023;-62
2023/06/19 05:03:18;;;;;;;14.70;8.60;;;;;;;18.70;93.19;100605.97;7363461;19;20017;-64
2023/06/19 05:05:45;;;;;;;15.65;8.30;;;;;;;18.69;92.14;100610.50;7362608;19;20019;-62
2023/06/19 05:08:12;;;;;;;13.75;8.68;;;;;;;18.71;91.88;100610.28;7365761;19;20025;-62
2023/06/19 05:10:40;;;;;;;16.08;9.27;;;;;;;18.71;91.60;100610.28;7365652;19;20014;-62
2023/06/19 05:13:08;;;;;;;14.00;9.07;;;;;;;18.69;91.65;100604.38;7360640;19;20026;-62
2023/06/19 05:15:35;;;;;;;15.95;8.93;;;;;;;18.66;91.67;100599.44;7362996;19;20015;-62
2023/06/19 05:18:02;;;;;;;17.38;10.05;;;;;;;18.67;91.94;100591.25;7361526;19;20555;-62
2023/06/19 05:20:30;;;;;;;15.50;9.23;;;;;;;18.70;92.65;100593.47;7364263;19;20090;-61
2023/06/19 05:22:57;;;;;;;15.98;9.13;;;;;;;18.68;92.09;100611.53;7363493;19;20041;-62
2023/06/19 05:25:24;;;;;;;13.88;8.38;;;;;;;18.64;92.21;100609.50;7365600;19;20017;-63
2023/06/19 05:27:51;;;;;;;14.60;9.00;;;;;;;18.63;92.35;100614.03;7361354;19;20071;-63
2023/06/19 05:30:18;;;;;;;16.08;8.65;;;;;;;18.62;92.08;100614.22;7363072;19;20423;-62
2023/06/19 05:32:46;;;;;;;15.02;8.88;;;;;;;18.64;92.54;100623.63;7362116;19;20383;-62
2023/06/19 05:35:13;;;;;;;16.98;9.43;;;;;;;18.65;92.18;100622.59;7365799;19;20097;-62
2023/06/19 05:37:43;;;;;;;16.42;8.75;;;;;;;18.68;92.48;100624.06;7362861;19;20022;-61
2023/06/19 05:40:11;;;;;;;18.65;9.10;;;;;;;18.71;92.81;100635.09;7363031;19;20014;-62
2023/06/19 05:42:39;;;;;;;24.15;10.27;;;;;;;18.71;92.81;100632.44;7362790;19;20375;-63
2023/06/19 05:45:07;;;;;;;20.42;9.45;;;;;;;18.71;92.85;100631.63;7364452;19;20383;-63
2023/06/19 05:47:34;;;;;;;16.98;9.63;;;;;;;18.73;92.75;100637.56;7363772;19;20018;-63
2023/06/19 05:50:02;;;;;;;19.10;10.45;;;;;;;18.72;93.02;100636.75;7361854;19;20149;-64
2023/06/19 05:52:29;;;;;;;18.55;11.15;;;;;;;18.72;93.03;100641.25;7361518;19;20433;-62
2023/06/19 05:54:58;;;;;;;20.52;11.20;;;;;;;18.71;93.24;100637.78;7364010;19;20025;-63
2023/06/19 05:57:25;;;;;;;16.70;10.02;;;;;;;18.71;93.58;100627.09;7362607;19;20022;-63
2023/06/19 05:59:52;;;;;;;18.33;10.23;;;;;;;18.74;93.61;100637.34;7361119;19;20312;-62
2023/06/19 06:02:20;;;;;;;19.23;10.43;;;;;;;18.74;93.21;100625.88;7357334;19;20011;-61
2023/06/19 06:04:47;;;;;;;15.82;9.55;;;;;;;18.76;93.53;100634.47;7363658;19;20946;-62
2023/06/19 06:07:15;;;;;;;17.10;10.23;;;;;;;18.76;93.58;100631.81;7362215;19;20031;-62
2023/06/19 06:09:42;;;;;;;18.73;9.75;;;;;;;18.78;93.23;100633.25;7363880;19;20035;-62
2023/06/19 06:12:09;;;;;;;19.40;9.27;;;;;;;18.86;93.22;100631.34;7358880;19;20025;-62
2023/06/19 06:14:36;;;;;;;15.63;9.50;;;;;;;18.91;92.88;100634.19;7362589;19;20018;-62
2023/06/19 06:17:05;;;;;;;15.38;9.07;;;;;;;18.94;92.70;100629.28;7360634;19;20046;-63
2023/06/19 06:19:32;;;;;;;19.33;11.25;;;;;;;18.99;92.94;100628.66;7360038;19;20014;-63
2023/06/19 06:22:00;;;;;;;20.75;10.30;;;;;;;19.09;93.40;100632.50;7361333;19;21690;-62
2023/06/19 06:24:27;;;;;;;16.55;9.70;;;;;;;19.12;92.02;100629.38;7362978;19;20618;-63
2023/06/19 06:26:54;;;;;;;18.08;8.93;;;;;;;19.11;91.70;100633.06;7363725;19;20152;-62
2023/06/19 06:29:22;;;;;;;18.58;9.60;;;;;;;19.15;91.25;100636.94;7363637;19;21156;-61
2023/06/19 06:31:52;;;;;;;17.20;9.27;;;;;;;19.29;91.16;100643.06;7361484;19;20029;-62
2023/06/19 06:34:19;;;;;;;17.50;9.65;;;;;;;19.43;90.67;100638.44;7361437;19;20035;-63
2023/06/19 06:36:47;;;;;;;17.20;9.15;;;;;;;19.61;90.09;100644.69;7364087;19;20014;-63
2023/06/19 06:39:31;;;;;;;17.00;9.82;;;;;;;19.67;88.95;100643.03;7361919;19;20026;-63
2023/06/19 06:41:58;;;;;;;17.23;9.30;;;;;;;19.68;88.17;100646.50;7362990;19;20018;-63
2023/06/19 06:44:26;;;;;;;17.85;9.60;;;;;;;19.68;87.87;100649.19;7360390;19;20798;-62
2023/06/19 06:46:58;;;;;;;16.45;9.02;;;;;;;19.70;87.63;100649.78;7360211;19;20415;-61
2023/06/19 06:49:30;;;;;;;17.23;9.75;;;;;;;19.71;87.83;100649.56;7360979;19;20086;-62
2023/06/19 06:51:58;;;;;;;17.88;8.85;;;;;;;19.77;88.44;100661.22;7363713;19;20019;-62
2023/06/19 06:54:25;;;;;;;14.85;8.68;;;;;;;19.77;87.40;100662.03;7361863;19;20011;-62
2023/06/19 06:57:05;;;;;;;16.73;9.32;;;;;;;19.78;87.07;100658.34;7362146;19;20015;-62
2023/06/19 06:59:38;;;;;;;18.77;9.40;;;;;;;19.85;86.87;100660.97;7361297;19;20014;-62
2023/06/19 07:02:05;;;;;;;20.05;9.02;;;;;;;19.87;86.85;100659.72;7360430;19;21872;-63
2023/06/19 07:04:33;;;;;;;18.38;9.02;;;;;;;19.91;87.08;100662.78;7361661;19;20022;-63
2023/06/19 07:07:04;;;;;;;17.73;8.43;;;;;;;19.98;86.82;100659.00;7359511;19;20007;-62
2023/06/19 07:09:38;;;;;;;18.35;8.52;;;;;;;20.05;85.84;100665.13;7362824;19;20221;-63
2023/06/19 07:12:06;;;;;;;17.73;8.77;;;;;;;20.11;85.18;100674.13;7363032;19;20026;-62
2023/06/19 07:14:34;;;;;;;18.73;8.65;;;;;;;20.18;84.50;100668.69;7362294;19;20010;-63
2023/06/19 07:17:14;;;;;;;13.40;8.00;;;;;;;20.23;84.60;100674.19;7361642;19;20617;-63
2023/06/19 07:19:44;;;;;;;18.10;8.48;;;;;;;20.23;84.68;100671.53;7366902;19;20664;-62
2023/06/19 07:22:12;;;;;;;17.15;8.73;;;;;;;20.22;83.82;100676.06;7368406;19;20051;-62
2023/06/19 07:24:49;;;;;;;16.08;8.75;;;;;;;20.18;83.22;100668.69;7368453;19;20034;-62
2023/06/19 07:27:43;;;;;;;16.40;8.30;;;;;;;20.13;82.50;100669.34;7366176;19;20055;-63
2023/06/19 07:30:11;;;;;;;16.88;8.88;;;;;;;20.03;82.34;100669.84;7366631;19;21228;-63
2023/06/19 07:32:42;;;;;;;18.88;8.45;;;;;;;20.01;82.90;100668.44;7364665;19;20018;-62
2023/06/19 07:35:11;;;;;;;15.98;7.93;;;;;;;20.15;83.77;100664.63;7368239;19;20034;-62
2023/06/19 07:37:38;;;;;;;14.27;8.05;;;;;;;20.31;82.88;100672.13;7368459;19;20021;-63
2023/06/19 07:40:06;;;;;;;16.40;7.90;;;;;;;20.46;81.50;100677.09;7369761;19;20025;-62
2023/06/19 07:42:33;;;;;;;14.57;8.52;;;;;;;20.82;81.06;100669.09;7367424;19;20026;-62
2023/06/19 07:45:01;;;;;;;16.80;8.00;;;;;;;21.79;78.49;100672.50;7367496;19;20063;-63
2023/06/19 07:47:33;;;;;;;16.38;8.35;;;;;;;22.81;73.96;100679.22;7362678;19;21196;-63
2023/06/19 07:50:10;;;;;;;13.75;7.03;;;;;;;23.19;71.12;100675.13;7366568;19;20466;-62
2023/06/19 07:52:37;;;;;;;13.15;6.82;;;;;;;23.15;69.98;100671.31;7369131;19;20582;-63
2023/06/19 07:55:14;;;;;;;13.48;6.80;;;;;;;23.05;69.43;100671.09;7368944;19;20134;-62
2023/06/19 07:57:56;;;;;;;12.98;6.03;;;;;;;22.92;70.48;100674.88;7363764;19;20042;-63
2023/06/19 08:00:27;;;;;;;12.60;6.88;;;;;;;22.80;71.26;100679.47;7366160;19;20041;-63
2023/06/19 08:03:06;;;;;;;13.55;6.57;;;;;;;22.70;71.44;100672.00;7364609;19;20179;-63
2023/06/19 08:05:49;;;;;;;11.68;5.90;;;;;;;22.62;72.52;100677.69;7357195;19;20026;-62
2023/06/19 08:08:17;;;;;;;11.48;6.30;;;;;;;22.57;71.85;100673.03;7362900;19;20023;-62
2023/06/19 08:10:45;;;;;;;14.75;6.95;;;;;;;22.52;73.29;100683.66;7367426;19;20018;-61
2023/06/19 08:13:23;;;;;;;14.68;6.82;;;;;;;22.39;72.61;100683.91;7364738;19;20015;-62
2023/06/19 08:15:53;;;;;;;11.43;5.35;;;;;;;22.28;71.81;100683.91;7366037;19;20015;-62
2023/06/19 08:18:21;;;;;;;12.73;5.15;;;;;;;22.36;71.84;100686.22;7365949;19;20347;-63
2023/06/19 08:20:49;;;;;;;12.48;4.97;;;;;;;22.58;70.66;100679.22;7364914;19;20097;-62
2023/06/19 08:23:18;;;;;;;14.52;5.63;;;;;;;22.73;71.99;100679.59;7367777;19;20026;-63
2023/06/19 08:25:45;;;;;;;9.70;4.63;;;;;;;22.70;71.42;100687.28;7365924;19;20115;-62
2023/06/19 08:28:13;;;;;;;14.52;5.38;;;;;;;22.69;71.22;100667.66;7367610;19;20010;-62
2023/06/19 08:30:44;;;;;;;10.15;4.97;;;;;;;23.02;70.29;100675.88;7364577;19;21104;-63
2023/06/19 08:33:13;;;;;;;10.82;4.32;;;;;;;23.56;67.80;100680.97;7365184;19;20550;-62
2023/06/19 08:35:40;;;;;;;10.68;4.00;;;;;;;23.93;65.81;100676.75;7364897;19;20101;-62
2023/06/19 08:38:08;;;;;;;9.30;4.13;;;;;;;24.12;64.37;100670.09;7364285;19;20034;-62
2023/06/19 08:40:35;;;;;;;9.30;3.88;;;;;;;24.03;63.92;100674.22;7364646;19;20530;-63
2023/06/19 08:43:03;;;;;;;11.75;4.53;;;;;;;23.80;65.12;100677.09;7366783;19;20011;-61
2023/06/19 08:45:30;;;;;;;10.02;4.50;;;;;;;23.57;66.12;100680.69;7368313;19;20018;-62
2023/06/19 08:47:59;;;;;;;9.82;4.20;;;;;;;23.43;66.32;100685.53;7360680;19;20716;-64
2023/06/19 08:50:27;;;;;;;8.60;3.53;;;;;;;23.30;67.26;100688.53;7362797;19;20022;-61
2023/06/19 08:52:55;;;;;;;7.70;3.33;;;;;;;23.21;67.29;100684.56;7366820;19;20360;-62
2023/06/19 08:55:23;;;;;;;7.93;3.20;;;;;;;23.25;66.23;100688.44;7366882;19;20018;-62
2023/06/19 08:57:52;;;;;;;7.80;3.47;;;;;;;23.21;65.78;100700.69;7366133;19;20047;-61
2023/06/19 09:00:26;;;;;;;7.97;3.42;;;;;;;23.10;66.41;100698.88;7368267;19;20142;-61
2023/06/19 09:03:01;;;;;;;8.45;3.92;;;;;;;22.92;66.58;100702.53;7363006;19;20041;-62
2023/06/19 09:05:49;;;;;;;10.57;3.35;;;;;;;22.78;67.38;100706.53;7361844;19;21714;-62
2023/06/19 09:08:19;;;;;;;7.93;2.97;;;;;;;22.82;68.92;100701.50;7365094;19;20105;-63
2023/06/19 09:10:56;;;;;;;5.88;3.00;;;;;;;23.12;67.88;100704.00;7367083;19;20018;-62
2023/06/19 09:13:23;;;;;;;7.47;2.65;;;;;;;23.15;66.96;100698.97;7366798;19;20018;-62
2023/06/19 09:16:05;;;;;;;6.22;2.63;;;;;;;23.13;66.68;100706.44;7364930;19;20491;-61
2023/06/19 09:18:48;;;;;;;6.85;2.65;;;;;;;23.08;66.73;100700.16;7323929;19;20018;-62
2023/06/19 09:21:38;;;;;;;5.45;2.67;;;;;;;23.14;66.72;100699.22;7330685;19;20018;-62
2023/06/19 09:24:13;;;;;;;7.70;2.42;;;;;;;23.10;65.55;100701.56;7350392;19;20029;-62
2023/06/19 09:26:51;;;;;;;8.18;2.78;;;;;;;23.10;66.96;100701.56;7354619;19;20018;-62
2023/06/19 09:29:19;;;;;;;7.70;3.22;;;;;;;23.12;67.64;100696.75;7357377;19;20018;-63
2023/06/19 09:31:47;;;;;;;8.18;3.13;;;;;;;23.24;67.30;100696.72;7358528;19;20967;-63
2023/06/19 09:34:15;;;;;;;8.23;3.40;;;;;;;23.23;67.50;100697.75;7357013;19;20018;-61
2023/06/19 09:36:45;;;;;;;7.50;3.35;;;;;;;23.22;67.25;100702.31;7359133;19;20037;-62
2023/06/19 09:39:16;;;;;;;8.25;2.90;;;;;;;23.31;67.78;100700.91;7357419;19;20085;-64
2023/06/19 09:41:46;;;;;;;13.63;2.67;;;;;;;23.40;66.29;100702.16;7360506;19;20865;-62
2023/06/19 09:44:16;;;;;;;9.48;2.90;;;;;;;23.46;64.77;100697.72;7361714;19;20014;-62
2023/06/19 09:46:46;;;;;;;9.98;3.40;;;;;;;23.50;65.57;100704.25;7360495;19;20010;-61
2023/06/19 09:49:16;;;;;;;3.17;1.65;;;;;;;23.56;63.96;100703.28;7330678;19;20026;-62
2023/06/19 09:51:43;;;;;;;6.35;1.42;;;;;;;23.59;62.66;100701.97;7358087;19;20040;-62
2023/06/19 09:54:11;;;;;;;5.63;2.00;;;;;;;23.66;61.93;100700.78;7364428;19;20099;-62
2023/06/19 09:56:39;;;;;;;4.65;2.13;;;;;;;23.73;61.92;100696.03;7361197;19;20163;-62
2023/06/19 09:59:19;;;;;;;5.25;1.92;;;;;;;23.78;62.07;100701.50;7361789;19;20731;-62
2023/06/19 10:01:47;;;;;;;4.88;2.10;;;;;;;23.83;61.04;100704.28;7356229;19;20006;-63
2023/06/19 10:04:14;;;;;;;6.53;2.42;;;;;;;23.85;61.53;100702.19;7360142;19;20606;-61
2023/06/19 10:06:57;;;;;;;7.18;2.10;;;;;;;23.86;61.11;100714.56;7362427;19;20018;-62
2023/06/19 10:09:32;;;;;;;6.15;1.85;;;;;;;23.88;60.82;100712.44;7362698;19;20014;-62
2023/06/19 10:12:11;;;;;;;8.35;2.15;;;;;;;23.91;60.93;100711.16;7362782;19;20451;-63
2023/06/19 10:14:48;;;;;;;6.45;2.08;;;;;;;23.90;60.47;100709.50;7361628;19;20033;-62
2023/06/19 10:17:18;;;;;;;6.45;2.95;;;;;;;23.96;61.95;100710.41;7361330;19;20782;-63
2023/06/19 10:19:52;;;;;;;6.57;2.40;;;;;;;24.05;61.61;100708.94;7356015;19;20463;-61
2023/06/19 10:22:21;;;;;;;4.35;2.25;;;;;;;24.08;60.91;100714.63;7353894;19;20463;-61
2023/06/19 10:24:52;;;;;;;5.90;2.13;;;;;;;24.05;61.11;100709.75;7359688;19;20030;-62
2023/06/19 10:27:25;;;;;;;6.90;2.20;;;;;;;24.16;61.79;100708.06;7356204;19;20029;-61
2023/06/19 10:29:53;;;;;;;6.93;2.17;;;;;;;24.23;61.18;100712.22;7355852;19;20416;-61
2023/06/19 10:32:40;;;;;;;7.03;2.47;;;;;;;24.26;60.59;100710.94;7356537;19;20022;-62
2023/06/19 10:35:12;;;;;;;4.43;1.95;;;;;;;24.19;59.74;100705.69;7358730;19;20090;-62
2023/06/19 10:37:41;;;;;;;5.70;2.25;;;;;;;24.05;61.15;100699.00;7360094;19;20022;-63
2023/06/19 10:40:10;;;;;;;9.70;3.70;;;;;;;24.09;62.37;100705.50;7357720;19;20406;-61
2023/06/19 10:42:37;;;;;;;7.65;2.40;;;;;;;24.14;62.06;100704.78;7359536;19;20022;-63
2023/06/19 10:45:06;;;;;;;7.68;2.22;;;;;;;24.24;62.53;100695.03;7361254;19;20896;-62
2023/06/19 10:47:33;;;;;;;7.00;3.08;;;;;;;24.32;62.68;100699.19;7357709;19;20054;-62
2023/06/19 10:50:00;;;;;;;6.00;2.22;;;;;;;24.30;60.00;100695.91;7355329;19;20015;-65
2023/06/19 10:52:31;;;;;;;5.85;2.25;;;;;;;24.21;60.03;100683.94;7356040;19;20015;-62
2023/06/19 10:54:58;;;;;;;6.43;1.90;;;;;;;24.13;61.63;100677.06;7357093;19;21698;-63
2023/06/19 10:57:31;;;;;;;5.97;2.08;;;;;;;24.11;62.14;100686.44;7358069;19;20025;-63
2023/06/19 10:59:58;;;;;;;8.13;2.05;;;;;;;24.11;62.52;100699.91;7354209;19;20022;-61
2023/06/19 11:02:25;;;;;;;5.45;2.47;;;;;;;24.12;62.20;100686.22;7356047;19;20022;-63
2023/06/19 11:04:54;;;;;;;3.63;1.83;;;;;;;24.21;61.23;100692.03;7358095;19;20053;-62
2023/06/19 11:07:24;;;;;;;5.40;1.92;;;;;;;24.28;60.44;100684.56;7355212;19;20015;-62
2023/06/19 11:09:51;;;;;;;6.90;1.83;;;;;;;24.35;60.59;100685.22;7360352;19;20014;-62
2023/06/19 11:12:21;;;;;;;4.80;2.30;;;;;;;24.41;61.02;100691.50;7356528;19;20018;-62
2023/06/19 11:14:49;;;;;;;5.97;2.42;;;;;;;24.46;62.25;100692.41;7355226;19;20010;-62
2023/06/19 11:17:21;;;;;;;7.78;2.15;;;;;;;24.50;61.14;100690.00;7358232;19;20094;-62
2023/06/19 11:19:49;;;;;;;4.07;1.75;;;;;;;24.46;60.82;100687.00;7356494;19;20035;-62
2023/06/19 11:22:16;;;;;;;5.90;2.22;;;;;;;24.42;61.00;100685.06;7354613;19;20701;-62
2023/06/19 11:24:45;;;;;;;3.80;1.77;;;;;;;24.40;60.65;100688.00;7360951;19;20023;-62
2023/06/19 11:27:27;;;;;;;3.45;1.70;;;;;;;24.42;59.96;100685.06;7358997;19;20026;-61